地図

経路データ

SID SEASON NUMBER BASIN SUBBASIN NAME ISO_TIME NATURE LAT LON WMO_WIND WMO_PRES WMO_AGENCY TRACK_TYPE DIST2LAND LANDFALL IFLAG USA_AGENCY USA_ATCF_ID USA_LAT USA_LON USA_RECORD USA_STATUS USA_WIND USA_PRES USA_SSHS USA_R34_NE USA_R34_SE USA_R34_SW USA_R34_NW USA_R50_NE USA_R50_SE USA_R50_SW USA_R50_NW USA_R64_NE USA_R64_SE USA_R64_SW USA_R64_NW USA_POCI USA_ROCI USA_RMW USA_EYE TOKYO_LAT TOKYO_LON TOKYO_GRADE TOKYO_WIND TOKYO_PRES TOKYO_R50_DIR TOKYO_R50_LONG TOKYO_R50_SHORT TOKYO_R30_DIR TOKYO_R30_LONG TOKYO_R30_SHORT TOKYO_LAND CMA_LAT CMA_LON CMA_CAT CMA_WIND CMA_PRES HKO_LAT HKO_LON HKO_CAT HKO_WIND HKO_PRES NEWDELHI_LAT NEWDELHI_LON NEWDELHI_GRADE NEWDELHI_WIND NEWDELHI_PRES NEWDELHI_CI NEWDELHI_DP NEWDELHI_POCI REUNION_LAT REUNION_LON REUNION_TYPE REUNION_WIND REUNION_PRES REUNION_TNUM REUNION_CI REUNION_RMW REUNION_R34_NE REUNION_R34_SE REUNION_R34_SW REUNION_R34_NW REUNION_R50_NE REUNION_R50_SE REUNION_R50_SW REUNION_R50_NW REUNION_R64_NE REUNION_R64_SE REUNION_R64_SW REUNION_R64_NW BOM_LAT BOM_LON BOM_TYPE BOM_WIND BOM_PRES BOM_TNUM BOM_CI BOM_RMW BOM_R34_NE BOM_R34_SE BOM_R34_SW BOM_R34_NW BOM_R50_NE BOM_R50_SE BOM_R50_SW BOM_R50_NW BOM_R64_NE BOM_R64_SE BOM_R64_SW BOM_R64_NW BOM_ROCI BOM_POCI BOM_EYE BOM_POS_METHOD BOM_PRES_METHOD NADI_LAT NADI_LON NADI_CAT NADI_WIND NADI_PRES WELLINGTON_LAT WELLINGTON_LON WELLINGTON_WIND WELLINGTON_PRES DS824_LAT DS824_LON DS824_STAGE DS824_WIND DS824_PRES TD9636_LAT TD9636_LON TD9636_STAGE TD9636_WIND TD9636_PRES TD9635_LAT TD9635_LON TD9635_WIND TD9635_PRES TD9635_ROCI NEUMANN_LAT NEUMANN_LON NEUMANN_CLASS NEUMANN_WIND NEUMANN_PRES MLC_LAT MLC_LON MLC_CLASS MLC_WIND MLC_PRES USA_GUST BOM_GUST BOM_GUST_PER REUNION_GUST REUNION_GUST_PER USA_SEAHGT USA_SEARAD_NE USA_SEARAD_SE USA_SEARAD_SW USA_SEARAD_NW STORM_SPEED STORM_DIR
1943294N16279 1943 75 NA CS NOT_NAMED 1943-10-20 12:00:00 TS 16.0000 -81.0000 25 hurdat_atl main 251 237 O_____________ hurdat_atl AL101943 16.0000 -81.0000 TD 25 -1 4 299
1943294N16279 1943 75 NA CS NOT_NAMED 1943-10-20 15:00:00 TS 16.1000 -81.1900 main 237 226 P_____________ AL101943 16.1000 -81.1900 TD 27 -1 4 297
1943294N16279 1943 75 NA CS NOT_NAMED 1943-10-20 18:00:00 TS 16.2000 -81.4000 30 hurdat_atl main 226 216 O_____________ hurdat_atl AL101943 16.2000 -81.4000 TD 30 -1 5 295
1943294N16279 1943 75 NA CS NOT_NAMED 1943-10-20 21:00:00 TS 16.3000 -81.6425 main 216 201 P_____________ AL101943 16.3000 -81.6425 TD 32 -1 5 293
1943294N16279 1943 75 NA CS NOT_NAMED 1943-10-21 00:00:00 TS 16.4000 -81.9000 35 hurdat_atl main 202 193 O_____________ hurdat_atl AL101943 16.4000 -81.9000 TS 35 0 5 293
1943294N16279 1943 75 NA CS NOT_NAMED 1943-10-21 03:00:00 TS 16.5074 -82.1425 main 193 180 P_____________ AL101943 16.5074 -82.1425 TS 37 0 5 293
1943294N16279 1943 75 NA CS NOT_NAMED 1943-10-21 06:00:00 TS 16.6000 -82.4000 40 hurdat_atl main 180 168 O_____________ hurdat_atl AL101943 16.6000 -82.4000 TS 40 0 5 287
1943294N16279 1943 75 NA CS NOT_NAMED 1943-10-21 09:00:00 TS 16.6650 -82.6850 main 173 162 P_____________ AL101943 16.6650 -82.6850 TS 40 0 6 280
1943294N16279 1943 75 NA CS NOT_NAMED 1943-10-21 12:00:00 TS 16.7000 -83.0000 40 hurdat_atl main 162 144 O_____________ hurdat_atl AL101943 16.7000 -83.0000 TS 40 0 6 273
1943294N16279 1943 75 NA CS NOT_NAMED 1943-10-21 15:00:00 TS 16.6999 -83.3276 main 144 119 P_____________ AL101943 16.6999 -83.3276 TS 40 0 7 270
1943294N16279 1943 75 NA CS NOT_NAMED 1943-10-21 18:00:00 TS 16.7000 -83.7000 40 hurdat_atl main 119 102 O_____________ hurdat_atl AL101943 16.7000 -83.7000 TS 40 0 8 273
1943294N16279 1943 75 NA CS NOT_NAMED 1943-10-21 21:00:00 TS 16.7424 -84.1275 main 102 101 P_____________ AL101943 16.7424 -84.1275 TS 40 0 9 277
1943294N16279 1943 75 NA CS NOT_NAMED 1943-10-22 00:00:00 TS 16.8000 -84.6000 40 hurdat_atl main 101 100 O_____________ hurdat_atl AL101943 16.8000 -84.6000 TS 40 0 9 277
1943294N16279 1943 75 NA CS NOT_NAMED 1943-10-22 03:00:00 TS 16.8500 -85.1000 main 100 100 P_____________ AL101943 16.8500 -85.1000 TS 40 0 10 276
1943294N16279 1943 75 NA CS NOT_NAMED 1943-10-22 06:00:00 TS 16.9000 -85.6000 40 hurdat_atl main 111 111 O_____________ hurdat_atl AL101943 16.9000 -85.6000 TS 40 0 9 276
1943294N16279 1943 75 NA CS NOT_NAMED 1943-10-22 09:00:00 TS 16.9425 -86.0800 main 113 113 P_____________ AL101943 16.9425 -86.0800 TS 40 0 9 277
1943294N16279 1943 75 NA CS NOT_NAMED 1943-10-22 12:00:00 TS 17.0000 -86.5000 40 hurdat_atl main 134 134 O_____________ hurdat_atl AL101943 17.0000 -86.5000 TS 40 0 7 281
1943294N16279 1943 75 NA CS NOT_NAMED 1943-10-22 15:00:00 TS 17.0849 -86.8300 main 145 119 P_____________ AL101943 17.0849 -86.8300 TS 37 0 6 289
1943294N16279 1943 75 NA CS NOT_NAMED 1943-10-22 18:00:00 TS 17.2000 -87.1000 35 hurdat_atl main 119 87 O_____________ hurdat_atl AL101943 17.2000 -87.1000 TS 35 0 6 296
1943294N16279 1943 75 NA CS NOT_NAMED 1943-10-22 21:00:00 TS 17.3425 -87.3800 main 87 63 P_____________ AL101943 17.3425 -87.3800 TS 35 0 6 302
1943294N16279 1943 75 NA CS NOT_NAMED 1943-10-23 00:00:00 TS 17.5000 -87.6000 35 hurdat_atl main 63 54 O_____________ hurdat_atl AL101943 17.5000 -87.6000 TS 35 0 5 314
1943294N16279 1943 75 NA CS NOT_NAMED 1943-10-23 03:00:00 TS 17.6574 -87.7226 main 56 43 P_____________ AL101943 17.6574 -87.7226 TS 35 0 4 328
1943294N16279 1943 75 NA CS NOT_NAMED 1943-10-23 06:00:00 TS 17.8000 -87.8000 35 hurdat_atl main 43 30 O_____________ hurdat_atl AL101943 17.8000 -87.8000 TS 35 0 3 328
1943294N16279 1943 75 NA CS NOT_NAMED 1943-10-23 09:00:00 TS 17.9225 -87.9000 main 30 15 P_____________ AL101943 17.9225 -87.9000 TS 35 0 3 316
1943294N16279 1943 75 NA CS NOT_NAMED 1943-10-23 12:00:00 TS 18.0000 -88.0000 35 hurdat_atl main 15 10 O_____________ hurdat_atl AL101943 18.0000 -88.0000 TS 35 0 2 297
1943294N16279 1943 75 NA CS NOT_NAMED 1943-10-23 15:00:00 TS 18.0225 -88.1075 main 10 0 P_____________ AL101943 18.0225 -88.1075 TS 35 0 2 270
1943294N16279 1943 75 NA CS NOT_NAMED 1943-10-23 18:00:00 TS 18.0000 -88.2000 35 hurdat_atl main 0 0 O_____________ hurdat_atl AL101943 18.0000 -88.2000 TS 35 0 2 252
1943294N16279 1943 75 NA NA NOT_NAMED 1943-10-23 21:00:00 TS 17.9650 -88.2875 main 0 0 P_____________ AL101943 17.9650 -88.2875 TS 35 0 1 223
1943294N16279 1943 75 NA NA NOT_NAMED 1943-10-24 00:00:00 TS 17.9000 -88.3000 35 hurdat_atl main 0 0 O_____________ hurdat_atl AL101943 17.9000 -88.3000 TS 35 0 2 150
1943294N16279 1943 75 NA CS NOT_NAMED 1943-10-24 03:00:00 TS 17.8075 -88.1950 main 10 10 P_____________ AL101943 17.8075 -88.1950 TS 35 0 3 125
1943294N16279 1943 75 NA CS NOT_NAMED 1943-10-24 06:00:00 TS 17.7000 -88.0000 35 hurdat_atl main 30 30 O_____________ hurdat_atl AL101943 17.7000 -88.0000 TS 35 0 5 118
1943294N16279 1943 75 NA CS NOT_NAMED 1943-10-24 09:00:00 TS 17.5925 -87.7650 main 43 43 P_____________ AL101943 17.5925 -87.7650 TS 35 0 5 113
1943294N16279 1943 75 NA CS NOT_NAMED 1943-10-24 12:00:00 TS 17.5000 -87.5000 35 hurdat_atl main 74 74 O_____________ hurdat_atl AL101943 17.5000 -87.5000 TS 35 0 5 107
1943294N16279 1943 75 NA CS NOT_NAMED 1943-10-24 15:00:00 TS 17.4424 -87.2576 main 96 96 P_____________ AL101943 17.4424 -87.2576 TS 35 0 5 102
1943294N16279 1943 75 NA CS NOT_NAMED 1943-10-24 18:00:00 TS 17.4000 -87.0000 35 hurdat_atl main 123 123 O_____________ hurdat_atl AL101943 17.4000 -87.0000 TS 35 0 5 101
1943294N16279 1943 75 NA CS NOT_NAMED 1943-10-24 21:00:00 TS 17.3425 -86.7150 main 154 154 P_____________ AL101943 17.3425 -86.7150 TS 35 0 6 100
1943294N16279 1943 75 NA CS NOT_NAMED 1943-10-25 00:00:00 TS 17.3000 -86.4000 35 hurdat_atl main 165 158 O_____________ hurdat_atl AL101943 17.3000 -86.4000 TS 35 0 6 95
1943294N16279 1943 75 NA CS NOT_NAMED 1943-10-25 03:00:00 TS 17.2925 -86.0575 main 158 156 P_____________ AL101943 17.2925 -86.0575 TS 35 0 7 90
1943294N16279 1943 75 NA CS NOT_NAMED 1943-10-25 06:00:00 TS 17.3000 -85.7000 35 hurdat_atl main 156 156 O_____________ hurdat_atl AL101943 17.3000 -85.7000 TS 35 0 7 91
1943294N16279 1943 75 NA CS NOT_NAMED 1943-10-25 09:00:00 TS 17.2849 -85.3499 main 156 156 P_____________ AL101943 17.2849 -85.3499 TS 35 0 7 90
1943294N16279 1943 75 NA CS NOT_NAMED 1943-10-25 12:00:00 TS 17.3000 -85.0000 35 hurdat_atl main 156 156 O_____________ hurdat_atl AL101943 17.3000 -85.0000 TS 35 0 7 81
1943294N16279 1943 75 NA CS NOT_NAMED 1943-10-25 15:00:00 TS 17.3849 -84.6500 main 167 167 P_____________ AL101943 17.3849 -84.6500 TS 35 0 7 73
1943294N16279 1943 75 NA CS NOT_NAMED 1943-10-25 18:00:00 TS 17.5000 -84.3000 35 hurdat_atl main 184 184 O_____________ hurdat_atl AL101943 17.5000 -84.3000 TS 35 0 7 73
1943294N16279 1943 75 NA CS NOT_NAMED 1943-10-25 21:00:00 TS 17.5924 -83.9574 main 203 203 P_____________ AL101943 17.5924 -83.9574 TS 35 0 7 73
1943294N16279 1943 75 NA CS NOT_NAMED 1943-10-26 00:00:00 TS 17.7000 -83.6000 35 hurdat_atl main 225 225 O_____________ hurdat_atl AL101943 17.7000 -83.6000 TS 35 0 8 70
1943294N16279 1943 75 NA CS NOT_NAMED 1943-10-26 03:00:00 TS 17.8500 -83.2076 main 252 252 P_____________ AL101943 17.8500 -83.2076 TS 35 0 8 68
1943294N16279 1943 75 NA CS NOT_NAMED 1943-10-26 06:00:00 ET 18.0000 -82.8000 35 hurdat_atl main 293 293 O_____________ hurdat_atl AL101943 18.0000 -82.8000 EX 35 -4 8 71
1943294N16279 1943 75 NA CS NOT_NAMED 1943-10-26 09:00:00 ET 18.1148 -82.4149 main 327 327 P_____________ AL101943 18.1148 -82.4149 EX 35 -4 8 75
1943294N16279 1943 75 NA CS NOT_NAMED 1943-10-26 12:00:00 ET 18.2000 -82.0000 35 hurdat_atl main 357 327 O_____________ hurdat_atl AL101943 18.2000 -82.0000 EX 35 -4 9 80
1943294N16279 1943 75 NA CS NOT_NAMED 1943-10-26 15:00:00 ET 18.2579 -81.5201 main 327 274 P_____________ AL101943 18.2579 -81.5201 EX 32 -4 10 84
1943294N16279 1943 75 NA CS NOT_NAMED 1943-10-26 18:00:00 ET 18.3000 -81.0000 30 hurdat_atl main 274 O_____________ hurdat_atl AL101943 18.3000 -81.0000 EX 30 -4 10 85

IBTrACS Databaseについて

本データベースは、米国NOAAが公開する1842年以降の世界の熱帯低気圧のベストトラックデータアーカイブInternational Best Track Archive for Climate Stewardship (IBTrACS)を、ウェブで閲覧しやすい形式に変換したものです。

最終更新日:2021-12-06